Lewisville's Hourly Summary for Monday, May 14, 2018
Hour Temp
(f)
RH
(%)
Solar Rad.
(MJ/m2)
Rainfall
(in)
Wind
(mph)
5/14/2018 12:00 AM 79 64 0 0 6.43
5/14/2018 1:00 AM 79 66 0 0 5.02
5/14/2018 2:00 AM 78 68 0 0 7
5/14/2018 3:00 AM 77 70 0 0 7.2
5/14/2018 4:00 AM 76 75 0 0 7.63
5/14/2018 5:00 AM 75 78 0 0 7.19
5/14/2018 6:00 AM 73 81 0.02 0 7.15
5/14/2018 7:00 AM 74 79 0.41 0 7.95
5/14/2018 8:00 AM 75 73 0.87 0 9.02
5/14/2018 9:00 AM 77 67 1.34 0 10.98
5/14/2018 10:00 AM 80 60 2.33 0 10.42
5/14/2018 11:00 AM 82 55 2.25 0 10.25
5/14/2018 12:00 PM 83 54 2.76 0 10.41
5/14/2018 1:00 PM 86 49 2.85 0 9.56
5/14/2018 2:00 PM 87 47 2.62 0 9.67
5/14/2018 3:00 PM 87 47 2.42 0 9.23
5/14/2018 4:00 PM 87 47 1.87 0 9.05
5/14/2018 5:00 PM 86 47 0.98 0 7.37
5/14/2018 6:00 PM 86 46 0.8 0 8.31
5/14/2018 7:00 PM 85 50 0.13 0 8.53
5/14/2018 8:00 PM 83 55 0.01 0 7.15
5/14/2018 9:00 PM 82 58 0 0 8.03
5/14/2018 10:00 PM 81 61 0 0 6.89
5/14/2018 11:00 PM 79 64 0 0 5.88
Data Summary 80 60 21.66 0.00 8.18